createdAt,value
2019-01-29T00:01:14.549Z,0.23
2019-01-29T00:03:21.428Z,0.20
2019-01-29T00:05:27.768Z,0.17
2019-01-29T00:07:34.169Z,0.14
2019-01-29T00:09:40.669Z,0.13
2019-01-29T00:11:47.188Z,0.12
2019-01-29T00:13:53.488Z,0.11
2019-01-29T00:16:00.370Z,0.11
2019-01-29T00:18:06.668Z,0.11
2019-01-29T00:20:13.276Z,0.10
2019-01-29T00:22:20.339Z,0.11
2019-01-29T00:24:29.488Z,0.11
2019-01-29T00:26:36.468Z,0.14
2019-01-29T00:28:42.996Z,0.16
2019-01-29T00:30:49.448Z,0.17
2019-01-29T00:32:56.211Z,0.16
2019-01-29T00:35:02.476Z,0.18
2019-01-29T00:37:08.671Z,0.18
2019-01-29T00:39:15.011Z,0.18
2019-01-29T00:41:21.549Z,0.18
2019-01-29T00:43:28.277Z,0.18
2019-01-29T00:45:34.569Z,0.18
2019-01-29T00:47:41.368Z,0.20
2019-01-29T00:49:49.168Z,0.20
2019-01-29T00:51:56.471Z,0.20
2019-01-29T00:54:03.430Z,0.17
2019-01-29T00:56:09.949Z,0.17
2019-01-29T00:58:16.489Z,0.14
2019-01-29T01:00:24.928Z,0.11
2019-01-29T01:02:31.129Z,0.09
2019-01-29T01:04:38.248Z,0.05
2019-01-29T01:06:44.728Z,0.03
2019-01-29T01:08:53.469Z,-0.02
2019-01-29T01:10:59.709Z,-0.06
2019-01-29T01:13:08.028Z,-0.09
2019-01-29T01:15:15.334Z,-0.12
2019-01-29T01:17:22.208Z,-0.18
2019-01-29T01:19:29.008Z,-0.23
2019-01-29T01:21:35.388Z,-0.27
2019-01-29T01:23:41.831Z,-0.30
2019-01-29T01:25:48.756Z,-0.30
2019-01-29T01:27:54.934Z,-0.29
2019-01-29T01:30:01.430Z,-0.27
2019-01-29T01:32:08.630Z,-0.23
2019-01-29T01:34:17.729Z,-0.19
2019-01-29T01:36:24.588Z,-0.13
2019-01-29T01:38:31.127Z,-0.09
2019-01-29T01:40:37.647Z,-0.04
2019-01-29T01:42:44.171Z,0.04
2019-01-29T01:44:51.469Z,0.09
2019-01-29T01:46:58.548Z,0.15
2019-01-29T01:49:04.768Z,0.19
2019-01-29T01:51:11.170Z,0.23
2019-01-29T01:53:17.448Z,0.28
2019-01-29T01:55:23.808Z,0.31
2019-01-29T01:57:30.616Z,0.34
2019-01-29T01:59:36.708Z,0.35
2019-01-29T02:01:42.928Z,0.36
2019-01-29T02:03:52.728Z,0.37
2019-01-29T02:06:01.109Z,0.39
2019-01-29T02:08:13.889Z,0.40
2019-01-29T02:10:30.148Z,0.41
2019-01-29T02:12:37.208Z,0.41
2019-01-29T02:14:43.708Z,0.42
2019-01-29T02:16:51.628Z,0.43
2019-01-29T02:19:11.369Z,0.45
2019-01-29T02:21:18.571Z,0.45
2019-01-29T02:23:25.788Z,0.47
2019-01-29T02:25:31.871Z,0.47
2019-01-29T02:27:38.229Z,0.48
2019-01-29T02:29:45.568Z,0.47
2019-01-29T02:31:52.768Z,0.47
2019-01-29T02:33:59.828Z,0.47
2019-01-29T02:36:06.289Z,0.46
2019-01-29T02:38:13.311Z,0.45
2019-01-29T02:40:22.828Z,0.45
2019-01-29T02:42:35.109Z,0.44
2019-01-29T02:44:42.908Z,0.42
2019-01-29T02:46:54.828Z,0.40
2019-01-29T02:49:17.999Z,0.40
2019-01-29T02:51:32.908Z,0.37
2019-01-29T02:53:40.328Z,0.36
2019-01-29T02:55:46.468Z,0.35
2019-01-29T02:57:52.694Z,0.34
2019-01-29T02:59:59.368Z,0.34
2019-01-29T03:02:07.409Z,0.35
2019-01-29T03:07:39.368Z,0.35
2019-01-29T03:09:46.248Z,0.35
2019-01-29T03:11:52.547Z,0.38
2019-01-29T03:14:02.748Z,0.41
2019-01-29T03:16:09.129Z,0.42
2019-01-29T03:18:15.527Z,0.43
2019-01-29T03:20:21.908Z,0.43
2019-01-29T03:22:28.231Z,0.43
2019-01-29T03:24:34.669Z,0.46
2019-01-29T03:26:41.167Z,0.45
2019-01-29T03:28:47.610Z,0.45
2019-01-29T03:30:53.889Z,0.44
2019-01-29T03:33:00.070Z,0.47
2019-01-29T03:35:08.827Z,0.47
2019-01-29T03:37:15.908Z,0.48
2019-01-29T03:39:23.989Z,0.49
2019-01-29T03:41:31.388Z,0.49
2019-01-29T03:43:38.528Z,0.49
2019-01-29T03:45:54.789Z,0.49
2019-01-29T03:48:05.888Z,0.50
2019-01-29T03:50:18.410Z,0.50
2019-01-29T03:52:25.713Z,0.51
2019-01-29T03:54:32.169Z,0.52
2019-01-29T03:56:38.470Z,0.52
2019-01-29T03:58:45.289Z,0.55
2019-01-29T04:00:52.047Z,0.55
2019-01-29T04:02:58.667Z,0.55
2019-01-29T04:05:06.149Z,0.53
2019-01-29T04:07:12.555Z,0.53
2019-01-29T04:09:18.948Z,0.54
2019-01-29T04:11:26.588Z,0.55
2019-01-29T04:13:33.189Z,0.56
2019-01-29T04:15:40.271Z,0.57
2019-01-29T04:17:47.208Z,0.57
2019-01-29T04:19:53.609Z,0.58
2019-01-29T04:22:00.001Z,0.60
2019-01-29T04:24:08.308Z,0.62
2019-01-29T04:26:22.028Z,0.63
2019-01-29T04:28:33.908Z,0.65
2019-01-29T04:30:46.910Z,0.67
2019-01-29T04:32:53.069Z,0.67
2019-01-29T04:35:01.769Z,0.68
2019-01-29T04:37:08.888Z,0.69
2019-01-29T04:39:15.248Z,0.70
2019-01-29T04:41:21.610Z,0.71
2019-01-29T04:43:29.328Z,0.71
2019-01-29T04:45:35.539Z,0.71
2019-01-29T04:47:42.054Z,0.69
2019-01-29T04:49:48.651Z,0.70
2019-01-29T04:51:56.208Z,0.69
2019-01-29T04:54:02.407Z,0.70
2019-01-29T04:56:09.228Z,0.72
2019-01-29T04:58:15.273Z,0.73
2019-01-29T05:00:26.842Z,0.73
2019-01-29T05:02:33.169Z,0.73
2019-01-29T05:04:41.210Z,0.74
2019-01-29T05:06:49.748Z,0.75
2019-01-29T05:08:56.408Z,0.74
2019-01-29T05:11:03.848Z,0.71
2019-01-29T05:13:10.269Z,0.71
2019-01-29T05:15:19.439Z,0.73
2019-01-29T05:17:26.948Z,0.73
2019-01-29T05:19:34.407Z,0.74
2019-01-29T05:21:41.948Z,0.74
2019-01-29T05:23:49.899Z,0.75
2019-01-29T05:25:56.368Z,0.73
2019-01-29T05:28:03.088Z,0.75
2019-01-29T05:30:16.889Z,0.77
2019-01-29T05:32:25.399Z,0.77
2019-01-29T05:34:32.154Z,0.75
2019-01-29T05:36:38.468Z,0.76
2019-01-29T05:38:45.149Z,0.76
2019-01-29T05:40:53.320Z,0.76
2019-01-29T05:43:00.428Z,0.77
2019-01-29T05:45:12.618Z,0.78
2019-01-29T05:47:20.171Z,0.79
2019-01-29T05:49:26.636Z,0.78
2019-01-29T05:51:33.393Z,0.79
2019-01-29T05:53:39.768Z,0.80
2019-01-29T05:55:46.250Z,0.81
2019-01-29T05:57:52.750Z,0.82
2019-01-29T05:59:59.088Z,0.86
2019-01-29T06:02:05.771Z,0.84
2019-01-29T06:04:12.268Z,0.85
2019-01-29T06:06:20.156Z,0.87
2019-01-29T06:10:57.868Z,0.91
2019-01-29T06:13:07.349Z,0.92
2019-01-29T06:15:25.548Z,0.92
2019-01-29T06:17:32.071Z,0.91
2019-01-29T06:19:43.931Z,0.95
2019-01-29T06:21:56.532Z,0.96
2019-01-29T06:24:02.929Z,0.97
2019-01-29T06:26:09.468Z,0.98
2019-01-29T06:28:18.828Z,0.98
2019-01-29T06:30:26.808Z,0.99
2019-01-29T06:32:34.129Z,0.97
2019-01-29T06:34:41.907Z,0.98
2019-01-29T06:36:50.924Z,0.97
2019-01-29T06:39:00.208Z,0.98
2019-01-29T06:41:06.730Z,0.99
2019-01-29T06:43:12.950Z,1.00
2019-01-29T06:45:23.429Z,1.00
2019-01-29T06:47:30.849Z,1.00
2019-01-29T06:49:40.388Z,0.99
2019-01-29T06:51:48.490Z,0.98
2019-01-29T06:53:55.309Z,0.98
2019-01-29T06:56:09.767Z,0.97
2019-01-29T06:58:20.654Z,0.98
2019-01-29T07:00:31.990Z,0.99
2019-01-29T07:02:38.069Z,0.99
2019-01-29T07:04:44.640Z,0.99
2019-01-29T07:06:51.029Z,0.99
2019-01-29T07:08:58.168Z,0.97
2019-01-29T07:11:04.488Z,1.00
2019-01-29T07:13:11.328Z,1.02
2019-01-29T07:15:45.288Z,1.02
2019-01-29T07:17:51.628Z,1.05
2019-01-29T07:19:57.929Z,1.04
2019-01-29T07:22:05.188Z,1.02
2019-01-29T07:24:12.331Z,1.04
2019-01-29T07:26:19.395Z,1.20
2019-01-29T07:28:27.330Z,1.20
2019-01-29T07:30:36.946Z,1.21
2019-01-29T07:32:43.392Z,1.16
2019-01-29T07:34:50.306Z,1.19
2019-01-29T07:36:56.608Z,1.33
2019-01-29T07:39:04.871Z,1.30
2019-01-29T07:41:11.428Z,1.37
2019-01-29T07:43:17.748Z,1.70
2019-01-29T07:45:25.192Z,1.76
2019-01-29T07:47:32.369Z,1.82
2019-01-29T07:49:38.868Z,1.71
2019-01-29T07:51:46.408Z,1.82
2019-01-29T07:53:52.748Z,2.12
2019-01-29T07:55:59.048Z,1.97
2019-01-29T07:58:07.070Z,1.93
2019-01-29T08:00:18.429Z,1.84
2019-01-29T08:02:25.688Z,1.83
2019-01-29T08:04:31.984Z,1.83
2019-01-29T08:06:41.689Z,1.87
2019-01-29T08:08:49.332Z,1.92
2019-01-29T08:10:55.568Z,1.97
2019-01-29T08:13:01.809Z,2.03
2019-01-29T08:15:12.430Z,2.34
2019-01-29T08:17:19.369Z,2.62
2019-01-29T08:19:27.468Z,2.57
2019-01-29T08:21:33.749Z,2.32
2019-01-29T08:23:40.091Z,2.23
2019-01-29T08:25:47.801Z,2.21
2019-01-29T08:27:58.449Z,2.13
2019-01-29T08:30:06.308Z,2.03
2019-01-29T08:32:12.909Z,1.89
2019-01-29T08:34:19.204Z,1.81
2019-01-29T08:36:25.508Z,1.72
2019-01-29T08:38:31.889Z,1.71
2019-01-29T08:40:38.248Z,1.68
2019-01-29T08:42:44.568Z,1.70
2019-01-29T08:44:50.669Z,1.74
2019-01-29T08:46:56.989Z,1.81
2019-01-29T08:49:03.250Z,1.80
2019-01-29T08:51:09.649Z,1.81
2019-01-29T08:53:17.108Z,1.83
2019-01-29T08:55:23.529Z,1.85
2019-01-29T08:57:30.088Z,1.81
2019-01-29T08:59:36.409Z,1.82
2019-01-29T09:01:44.249Z,1.83
2019-01-29T09:03:50.548Z,1.84
2019-01-29T09:05:57.388Z,1.83
2019-01-29T09:08:04.148Z,1.84
2019-01-29T09:10:17.088Z,1.86
2019-01-29T09:12:23.468Z,1.91
2019-01-29T09:14:30.012Z,1.95
2019-01-29T09:16:36.189Z,1.94
2019-01-29T09:18:42.688Z,1.93
2019-01-29T09:20:49.292Z,1.92
2019-01-29T09:22:57.430Z,1.91
2019-01-29T09:25:04.193Z,1.87
2019-01-29T09:27:10.489Z,1.81
2019-01-29T09:29:17.862Z,1.80
2019-01-29T09:31:24.508Z,1.72
2019-01-29T09:33:31.591Z,1.72
2019-01-29T09:35:37.889Z,1.74
2019-01-29T09:37:44.496Z,1.75
2019-01-29T09:39:51.369Z,1.74
2019-01-29T09:41:58.008Z,1.78
2019-01-29T09:44:04.530Z,1.82
2019-01-29T09:46:10.848Z,1.86
2019-01-29T09:48:18.168Z,1.87
2019-01-29T09:50:29.429Z,1.89
2019-01-29T09:52:36.049Z,1.89
2019-01-29T09:54:42.807Z,1.95
2019-01-29T09:56:49.759Z,1.95
2019-01-29T09:58:56.308Z,1.98
2019-01-29T10:01:02.728Z,1.99
2019-01-29T10:03:09.049Z,2.06
2019-01-29T10:05:15.868Z,2.06
2019-01-29T10:07:23.468Z,2.04
2019-01-29T10:09:29.675Z,2.03
2019-01-29T10:11:35.873Z,2.04
2019-01-29T10:13:42.049Z,2.07
2019-01-29T10:15:48.368Z,2.14
2019-01-29T10:17:54.988Z,2.15
2019-01-29T10:20:02.783Z,2.13
2019-01-29T10:22:10.788Z,2.09
2019-01-29T10:24:17.248Z,2.09
2019-01-29T10:26:23.869Z,2.09
2019-01-29T10:28:30.255Z,2.02
2019-01-29T10:30:38.988Z,2.01
2019-01-29T10:32:45.268Z,1.94
2019-01-29T10:34:51.690Z,1.91
2019-01-29T10:36:58.428Z,1.84
2019-01-29T10:39:07.088Z,1.82
2019-01-29T10:41:13.388Z,1.83
2019-01-29T10:43:19.812Z,1.80
2019-01-29T10:45:28.849Z,1.85
2019-01-29T10:47:36.069Z,1.92
2019-01-29T10:49:42.449Z,1.92
2019-01-29T10:51:49.250Z,1.89
2019-01-29T10:53:55.934Z,1.88
2019-01-29T10:56:03.714Z,1.89
2019-01-29T10:58:11.830Z,1.89
2019-01-29T11:00:26.434Z,1.88
2019-01-29T11:02:32.970Z,1.87
2019-01-29T11:04:39.275Z,1.85
2019-01-29T11:06:45.710Z,1.81
2019-01-29T11:08:52.933Z,1.84
2019-01-29T11:10:59.226Z,1.88
2019-01-29T11:13:07.387Z,1.93
2019-01-29T11:15:21.410Z,1.97
2019-01-29T11:17:28.012Z,1.97
2019-01-29T11:19:34.564Z,2.00
2019-01-29T11:21:41.453Z,2.00
2019-01-29T11:23:49.111Z,2.00
2019-01-29T11:25:56.245Z,1.99
2019-01-29T11:28:03.533Z,1.98
2019-01-29T11:30:14.837Z,2.01
2019-01-29T11:32:21.352Z,2.05
2019-01-29T11:34:27.951Z,2.06
2019-01-29T11:36:35.110Z,2.01
2019-01-29T11:38:41.991Z,2.03
2019-01-29T11:40:48.770Z,2.00
2019-01-29T11:42:55.050Z,1.97
2019-01-29T11:45:02.211Z,1.93
2019-01-29T11:47:08.498Z,1.92
2019-01-29T11:49:15.330Z,1.95
2019-01-29T11:51:22.151Z,1.97
2019-01-29T11:53:28.453Z,2.00
2019-01-29T11:55:34.471Z,2.04
2019-01-29T11:57:41.031Z,2.04
2019-01-29T11:59:47.269Z,2.05
2019-01-29T12:01:53.708Z,2.07
2019-01-29T12:04:00.168Z,2.07
2019-01-29T12:06:06.489Z,2.04
2019-01-29T12:08:13.008Z,2.02
2019-01-29T12:10:20.068Z,1.98
2019-01-29T12:12:27.591Z,1.96
2019-01-29T12:14:34.050Z,1.96
2019-01-29T12:16:40.150Z,1.97
2019-01-29T12:18:46.385Z,1.98
2019-01-29T12:20:56.090Z,1.97
2019-01-29T12:23:02.861Z,1.93
2019-01-29T12:25:09.117Z,1.93
2019-01-29T12:27:15.653Z,1.91
2019-01-29T12:29:25.296Z,1.87
2019-01-29T12:31:31.950Z,1.89
2019-01-29T12:33:38.750Z,1.93
2019-01-29T12:35:45.091Z,1.99
2019-01-29T12:37:51.777Z,2.09
2019-01-29T12:39:57.982Z,2.10
2019-01-29T12:42:04.441Z,2.12
2019-01-29T12:44:12.033Z,2.14
2019-01-29T12:46:18.476Z,2.15
2019-01-29T12:48:25.115Z,2.14
2019-01-29T12:50:33.390Z,2.14
2019-01-29T12:52:42.111Z,2.12
2019-01-29T12:54:50.370Z,2.12
2019-01-29T12:56:57.548Z,2.13
2019-01-29T12:59:03.785Z,2.19
2019-01-29T13:01:18.608Z,2.23
2019-01-29T13:03:25.568Z,2.20
2019-01-29T13:05:32.780Z,2.21
2019-01-29T13:07:39.408Z,2.23
2019-01-29T13:09:45.836Z,2.24
2019-01-29T13:11:53.668Z,2.26
2019-01-29T13:14:00.169Z,2.20
2019-01-29T13:16:08.609Z,2.16
2019-01-29T13:18:15.932Z,2.11
2019-01-29T13:20:22.233Z,2.10
2019-01-29T13:22:28.628Z,2.05
2019-01-29T13:24:35.228Z,2.02
2019-01-29T13:26:43.408Z,1.91
2019-01-29T13:28:49.908Z,1.88
2019-01-29T13:30:56.590Z,1.87
2019-01-29T13:33:02.790Z,1.84
2019-01-29T13:35:11.473Z,1.80
2019-01-29T13:37:18.052Z,1.80
2019-01-29T13:39:24.469Z,1.80
2019-01-29T13:41:30.955Z,1.79
2019-01-29T13:43:37.309Z,1.76
2019-01-29T13:45:43.969Z,1.74
2019-01-29T13:47:50.559Z,1.71
2019-01-29T13:49:56.855Z,1.66
2019-01-29T13:52:04.148Z,1.64
2019-01-29T13:54:11.689Z,1.62
2019-01-29T13:56:20.332Z,1.61
2019-01-29T13:58:28.704Z,1.60
2019-01-29T14:00:37.438Z,1.58
2019-01-29T14:02:43.570Z,1.57
2019-01-29T14:04:51.811Z,1.56
2019-01-29T14:06:59.651Z,1.52
2019-01-29T14:09:08.871Z,1.48
2019-01-29T14:11:15.274Z,1.45
2019-01-29T14:13:21.871Z,1.42
2019-01-29T14:15:31.794Z,1.42
2019-01-29T14:17:38.491Z,1.44
2019-01-29T14:19:45.409Z,1.43
2019-01-29T14:21:51.648Z,1.40
2019-01-29T14:23:57.928Z,1.39
2019-01-29T14:26:04.313Z,1.37
2019-01-29T14:28:14.693Z,1.35
2019-01-29T14:30:31.488Z,1.34
2019-01-29T14:32:39.472Z,1.33
2019-01-29T14:34:46.031Z,1.34
2019-01-29T14:36:52.112Z,1.34
2019-01-29T14:39:21.610Z,1.35
2019-01-29T14:41:28.291Z,1.37
2019-01-29T14:43:39.199Z,1.40
2019-01-29T14:45:45.776Z,1.40
2019-01-29T14:47:52.936Z,1.40
2019-01-29T14:49:59.491Z,1.36
2019-01-29T14:52:06.349Z,1.38
2019-01-29T14:54:13.437Z,1.37
2019-01-29T14:56:20.929Z,1.33
2019-01-29T14:58:27.288Z,1.31
2019-01-29T15:00:37.638Z,1.30
2019-01-29T15:02:44.671Z,1.28
2019-01-29T15:04:51.859Z,1.28
2019-01-29T15:06:59.557Z,1.24
2019-01-29T15:09:08.631Z,1.24
2019-01-29T15:11:17.340Z,1.23
2019-01-29T15:13:23.794Z,1.22
2019-01-29T15:15:35.061Z,1.20
2019-01-29T15:17:43.701Z,1.20
2019-01-29T15:19:50.474Z,1.18
2019-01-29T15:21:56.668Z,1.16
2019-01-29T15:24:05.188Z,1.15
2019-01-29T15:26:12.069Z,1.13
2019-01-29T15:28:18.810Z,1.12
2019-01-29T15:30:30.529Z,1.11
2019-01-29T15:32:37.117Z,1.09
2019-01-29T15:34:44.549Z,1.08
2019-01-29T15:36:50.908Z,1.07
2019-01-29T15:38:57.328Z,1.05
2019-01-29T15:41:04.368Z,1.01
2019-01-29T15:43:10.708Z,0.99
2019-01-29T15:45:26.310Z,0.97
2019-01-29T15:47:32.989Z,0.97
2019-01-29T15:49:39.684Z,0.94
2019-01-29T15:51:46.388Z,0.91
2019-01-29T15:53:52.668Z,0.88
2019-01-29T15:56:00.269Z,0.86
2019-01-29T15:58:07.268Z,0.87
2019-01-29T16:00:35.808Z,0.85
2019-01-29T16:02:42.910Z,0.84
2019-01-29T16:04:50.009Z,0.84
2019-01-29T16:06:56.124Z,0.84
2019-01-29T16:09:02.600Z,0.80
2019-01-29T16:11:11.072Z,0.79
2019-01-29T16:13:18.128Z,0.78
2019-01-29T16:15:26.488Z,0.78
2019-01-29T16:17:32.877Z,0.77
2019-01-29T16:19:39.194Z,0.77
2019-01-29T16:21:45.910Z,0.74
2019-01-29T16:23:52.438Z,0.74
2019-01-29T16:25:59.069Z,0.73
2019-01-29T16:28:06.548Z,0.74
2019-01-29T16:30:31.545Z,0.74
2019-01-29T16:32:38.368Z,0.74
2019-01-29T16:34:45.468Z,0.73
2019-01-29T16:36:52.927Z,0.72
2019-01-29T16:38:59.548Z,0.70
2019-01-29T16:41:06.129Z,0.69
2019-01-29T16:43:12.629Z,0.67
2019-01-29T16:45:26.408Z,0.66
2019-01-29T16:47:35.042Z,0.66
2019-01-29T16:49:41.268Z,0.66
2019-01-29T16:51:47.777Z,0.64
2019-01-29T16:53:54.448Z,0.64
2019-01-29T16:56:02.612Z,0.63
2019-01-29T16:58:09.511Z,0.62
2019-01-29T17:00:32.409Z,0.58
2019-01-29T17:02:38.968Z,0.54
2019-01-29T17:04:45.409Z,0.45
2019-01-29T17:06:51.887Z,0.39
2019-01-29T17:08:58.510Z,0.31
2019-01-29T17:11:05.888Z,0.23
2019-01-29T17:13:12.648Z,0.13
2019-01-29T17:15:31.588Z,0.01
2019-01-29T17:17:37.978Z,-0.09
2019-01-29T17:19:44.769Z,-0.18
2019-01-29T17:21:51.711Z,-0.26
2019-01-29T17:23:58.278Z,-0.36
2019-01-29T17:26:04.618Z,-0.42
2019-01-29T17:28:10.989Z,-0.48
2019-01-29T17:30:45.240Z,-0.57
2019-01-29T17:32:51.908Z,-0.66
2019-01-29T17:34:58.540Z,-0.76
2019-01-29T17:37:05.135Z,-0.85
2019-01-29T17:39:11.668Z,-0.90
2019-01-29T17:41:19.589Z,-0.96
2019-01-29T17:43:25.988Z,-0.99
2019-01-29T17:45:43.188Z,-1.01
2019-01-29T17:47:51.289Z,-1.05
2019-01-29T17:49:59.038Z,-1.12
2019-01-29T17:52:05.592Z,-1.15
2019-01-29T17:54:13.615Z,-1.15
2019-01-29T17:56:20.448Z,-1.22
2019-01-29T17:58:27.450Z,-1.27
2019-01-29T18:00:35.729Z,-1.33
2019-01-29T18:02:42.855Z,-1.39
2019-01-29T18:04:52.253Z,-1.46
2019-01-29T18:07:00.793Z,-1.52
2019-01-29T18:09:09.675Z,-1.56
2019-01-29T18:11:16.568Z,-1.57
2019-01-29T18:13:23.468Z,-1.61
2019-01-29T18:15:33.438Z,-1.61
2019-01-29T18:17:40.188Z,-1.62
2019-01-29T18:19:47.136Z,-1.60
2019-01-29T18:21:56.939Z,-1.60
2019-01-29T18:24:03.336Z,-1.57
2019-01-29T18:26:10.436Z,-1.57
2019-01-29T18:30:46.581Z,-1.56
2019-01-29T18:32:53.358Z,-1.57
2019-01-29T18:35:00.549Z,-1.57
2019-01-29T18:37:07.255Z,-1.54
2019-01-29T18:39:14.146Z,-1.51
2019-01-29T18:41:20.948Z,-1.42
2019-01-29T18:43:27.867Z,-1.35
2019-01-29T18:45:35.988Z,-1.22
2019-01-29T18:47:42.728Z,-1.08
2019-01-29T18:49:51.072Z,-0.99
2019-01-29T18:51:58.009Z,-0.89
2019-01-29T18:54:05.429Z,-0.80
2019-01-29T18:56:12.608Z,-0.72
2019-01-29T18:58:21.009Z,-0.65
2019-01-29T19:00:27.938Z,-0.59
2019-01-29T19:02:35.888Z,-0.55
2019-01-29T19:04:42.609Z,-0.50
2019-01-29T19:06:50.557Z,-0.49
2019-01-29T19:08:57.353Z,-0.49
2019-01-29T19:11:04.415Z,-0.50
2019-01-29T19:13:11.269Z,-0.49
2019-01-29T19:15:23.330Z,-0.51
2019-01-29T19:17:30.242Z,-0.52
2019-01-29T19:19:36.930Z,-0.51
2019-01-29T19:21:44.169Z,-0.50
2019-01-29T19:23:51.128Z,-0.50
2019-01-29T19:25:57.935Z,-0.47
2019-01-29T19:28:04.729Z,-0.44
2019-01-29T19:30:23.041Z,-0.41
2019-01-29T19:32:31.388Z,-0.38
2019-01-29T19:34:38.448Z,-0.35
2019-01-29T19:36:45.074Z,-0.31
2019-01-29T19:38:51.969Z,-0.30
2019-01-29T19:40:58.789Z,-0.29
2019-01-29T19:43:06.768Z,-0.26
2019-01-29T19:45:26.475Z,-0.24
2019-01-29T19:47:33.343Z,-0.22
2019-01-29T19:49:40.128Z,-0.18
2019-01-29T19:51:49.629Z,-0.16
2019-01-29T19:53:56.041Z,-0.15
2019-01-29T19:56:02.971Z,-0.13
2019-01-29T19:58:10.039Z,-0.15
2019-01-29T20:00:21.409Z,-0.12
2019-01-29T20:02:28.248Z,-0.10
2019-01-29T20:04:35.000Z,-0.12
2019-01-29T20:06:41.308Z,-0.10
2019-01-29T20:08:48.108Z,-0.09
2019-01-29T20:10:55.068Z,-0.09
2019-01-29T20:13:01.868Z,-0.09
2019-01-29T20:15:12.648Z,-0.10
2019-01-29T20:17:19.608Z,-0.08
2019-01-29T20:19:26.090Z,-0.08
2019-01-29T20:21:33.129Z,-0.05
2019-01-29T20:23:41.328Z,-0.05
2019-01-29T20:25:49.089Z,-0.02
2019-01-29T20:27:55.673Z,-0.02
2019-01-29T20:30:02.757Z,-0.01
2019-01-29T20:32:09.188Z,0.02
2019-01-29T20:34:16.669Z,0.01
2019-01-29T20:36:23.494Z,0.00
2019-01-29T20:38:35.187Z,0.00
2019-01-29T20:40:39.055Z,0.03
2019-01-29T20:42:46.336Z,0.03
2019-01-29T20:44:53.168Z,0.03
2019-01-29T20:46:59.866Z,-0.01
2019-01-29T20:49:06.528Z,-0.01
2019-01-29T20:51:13.388Z,-0.02
2019-01-29T20:53:20.229Z,-0.01
2019-01-29T20:55:27.156Z,-0.01
2019-01-29T20:57:34.089Z,0.02
2019-01-29T20:59:41.172Z,0.02
2019-01-29T21:01:48.948Z,0.03
2019-01-29T21:03:55.769Z,0.05
2019-01-29T21:06:03.529Z,0.05
2019-01-29T21:08:10.471Z,0.05
2019-01-29T21:10:26.271Z,0.04
2019-01-29T21:12:34.397Z,0.04
2019-01-29T21:14:41.890Z,0.04
2019-01-29T21:16:50.108Z,0.03
2019-01-29T21:18:56.802Z,0.01
2019-01-29T21:21:03.788Z,0.00
2019-01-29T21:23:10.969Z,0.00
2019-01-29T21:25:17.988Z,0.00
2019-01-29T21:27:25.110Z,0.02
2019-01-29T21:29:31.868Z,0.00
2019-01-29T21:31:40.401Z,0.01
2019-01-29T21:33:47.048Z,0.00
2019-01-29T21:35:53.728Z,-0.02
2019-01-29T21:38:00.356Z,-0.03
2019-01-29T21:40:13.397Z,-0.03
2019-01-29T21:42:22.090Z,-0.02
2019-01-29T21:44:28.649Z,-0.04
2019-01-29T21:46:35.072Z,-0.05
2019-01-29T21:48:41.950Z,-0.04
2019-01-29T21:50:48.809Z,-0.04
2019-01-29T21:52:55.576Z,-0.07
2019-01-29T21:55:02.909Z,-0.08
2019-01-29T21:57:10.029Z,-0.11
2019-01-29T21:59:16.388Z,-0.13
2019-01-29T22:01:23.068Z,-0.13
2019-01-29T22:03:29.288Z,-0.14
2019-01-29T22:05:36.767Z,-0.18
2019-01-29T22:07:43.268Z,-0.21
2019-01-29T22:09:49.548Z,-0.23
2019-01-29T22:11:56.189Z,-0.22
2019-01-29T22:14:12.328Z,-0.24
2019-01-29T22:16:19.429Z,-0.22
2019-01-29T22:18:25.868Z,-0.22
2019-01-29T22:20:33.431Z,-0.24
2019-01-29T22:22:42.108Z,-0.23
2019-01-29T22:24:48.368Z,-0.24
2019-01-29T22:26:55.689Z,-0.25
2019-01-29T22:29:02.048Z,-0.26
2019-01-29T22:31:08.308Z,-0.25
2019-01-29T22:33:16.109Z,-0.24
2019-01-29T22:35:22.389Z,-0.24
2019-01-29T22:37:28.768Z,-0.25
2019-01-29T22:39:35.708Z,-0.25
2019-01-29T22:41:42.068Z,-0.26
2019-01-29T22:43:50.268Z,-0.26
2019-01-29T22:45:56.648Z,-0.26
2019-01-29T22:48:04.662Z,-0.25
2019-01-29T22:50:16.088Z,-0.22
2019-01-29T22:52:22.668Z,-0.21
2019-01-29T22:54:28.908Z,-0.23
2019-01-29T22:56:35.730Z,-0.21
2019-01-29T22:58:43.728Z,-0.20
2019-01-29T23:01:09.528Z,-0.21
2019-01-29T23:03:17.728Z,-0.21
2019-01-29T23:05:25.213Z,-0.25
2019-01-29T23:07:32.848Z,-0.27
2019-01-29T23:09:40.148Z,-0.29
2019-01-29T23:11:47.311Z,-0.28
2019-01-29T23:13:53.808Z,-0.24
2019-01-29T23:16:00.310Z,-0.23
2019-01-29T23:18:07.688Z,-0.25
2019-01-29T23:20:17.149Z,-0.24
2019-01-29T23:22:23.930Z,-0.24
2019-01-29T23:24:31.988Z,-0.23
2019-01-29T23:26:38.308Z,-0.23
2019-01-29T23:28:44.588Z,-0.25
2019-01-29T23:30:50.968Z,-0.26
2019-01-29T23:32:57.289Z,-0.27
2019-01-29T23:35:05.749Z,-0.26
2019-01-29T23:37:12.228Z,-0.27
2019-01-29T23:39:20.090Z,-0.28
2019-01-29T23:41:29.361Z,-0.27
2019-01-29T23:43:35.789Z,-0.25
2019-01-29T23:45:42.151Z,-0.26
2019-01-29T23:47:49.910Z,-0.25
2019-01-29T23:49:57.089Z,-0.22
2019-01-29T23:52:04.249Z,-0.23
2019-01-29T23:54:10.672Z,-0.24
2019-01-29T23:56:17.329Z,-0.26
2019-01-29T23:58:24.668Z,-0.26
